sensor_id;sensor_type;location;lat;lon;timestamp;temperature;humidity
3053;DHT22;1536;51.098;6.414;2023-04-21T00:00:52;10.40;99.90
3053;DHT22;1536;51.098;6.414;2023-04-21T00:03:19;10.30;99.90
3053;DHT22;1536;51.098;6.414;2023-04-21T00:05:47;10.30;99.90
3053;DHT22;1536;51.098;6.414;2023-04-21T00:08:15;10.40;99.90
3053;DHT22;1536;51.098;6.414;2023-04-21T00:10:42;10.40;99.90
3053;DHT22;1536;51.098;6.414;2023-04-21T00:13:10;10.40;99.90
3053;DHT22;1536;51.098;6.414;2023-04-21T00:15:37;10.30;99.90
3053;DHT22;1536;51.098;6.414;2023-04-21T00:18:04;10.40;99.90
3053;DHT22;1536;51.098;6.414;2023-04-21T00:20:31;10.30;99.90
3053;DHT22;1536;51.098;6.414;2023-04-21T00:22:58;10.40;99.90
3053;DHT22;1536;51.098;6.414;2023-04-21T00:25:25;10.40;99.90
3053;DHT22;1536;51.098;6.414;2023-04-21T00:27:52;10.30;99.90
3053;DHT22;1536;51.098;6.414;2023-04-21T00:30:21;10.30;99.90
3053;DHT22;1536;51.098;6.414;2023-04-21T00:32:47;10.30;99.90
3053;DHT22;1536;51.098;6.414;2023-04-21T00:35:14;10.30;99.90
3053;DHT22;1536;51.098;6.414;2023-04-21T00:37:41;10.30;99.90
3053;DHT22;1536;51.098;6.414;2023-04-21T00:40:08;10.30;99.90
3053;DHT22;1536;51.098;6.414;2023-04-21T00:42:35;10.30;99.90
3053;DHT22;1536;51.098;6.414;2023-04-21T00:45:02;10.30;99.90
3053;DHT22;1536;51.098;6.414;2023-04-21T00:47:31;10.40;99.90
3053;DHT22;1536;51.098;6.414;2023-04-21T00:49:57;10.30;99.90
3053;DHT22;1536;51.098;6.414;2023-04-21T00:52:25;10.40;99.90
3053;DHT22;1536;51.098;6.414;2023-04-21T00:54:53;10.30;99.90
3053;DHT22;1536;51.098;6.414;2023-04-21T00:57:20;10.40;99.90
3053;DHT22;1536;51.098;6.414;2023-04-21T00:59:47;10.30;99.90
3053;DHT22;1536;51.098;6.414;2023-04-21T01:02:14;10.30;99.90
3053;DHT22;1536;51.098;6.414;2023-04-21T01:04:43;10.30;99.90
3053;DHT22;1536;51.098;6.414;2023-04-21T01:07:10;10.40;99.90
3053;DHT22;1536;51.098;6.414;2023-04-21T01:09:37;10.40;99.90
3053;DHT22;1536;51.098;6.414;2023-04-21T01:12:05;10.40;99.90
3053;DHT22;1536;51.098;6.414;2023-04-21T01:14:34;10.40;99.90
3053;DHT22;1536;51.098;6.414;2023-04-21T01:17:01;10.40;99.90
3053;DHT22;1536;51.098;6.414;2023-04-21T01:19:32;10.40;99.90
3053;DHT22;1536;51.098;6.414;2023-04-21T01:22:01;10.40;99.90
3053;DHT22;1536;51.098;6.414;2023-04-21T01:24:35;10.40;99.90
3053;DHT22;1536;51.098;6.414;2023-04-21T01:27:02;10.40;99.90
3053;DHT22;1536;51.098;6.414;2023-04-21T01:29:32;10.40;99.90
3053;DHT22;1536;51.098;6.414;2023-04-21T01:32:04;10.50;99.90
3053;DHT22;1536;51.098;6.414;2023-04-21T01:34:30;10.50;99.90
3053;DHT22;1536;51.098;6.414;2023-04-21T01:36:57;10.50;99.90
3053;DHT22;1536;51.098;6.414;2023-04-21T01:39:25;10.50;99.90
3053;DHT22;1536;51.098;6.414;2023-04-21T01:41:53;10.40;99.90
3053;DHT22;1536;51.098;6.414;2023-04-21T01:44:22;10.50;99.90
3053;DHT22;1536;51.098;6.414;2023-04-21T01:46:49;10.50;99.90
3053;DHT22;1536;51.098;6.414;2023-04-21T01:49:16;10.50;99.90
3053;DHT22;1536;51.098;6.414;2023-04-21T01:51:43;10.50;99.90
3053;DHT22;1536;51.098;6.414;2023-04-21T01:54:09;10.50;99.90
3053;DHT22;1536;51.098;6.414;2023-04-21T01:56:37;10.50;99.90
3053;DHT22;1536;51.098;6.414;2023-04-21T01:59:04;10.60;99.90
3053;DHT22;1536;51.098;6.414;2023-04-21T02:01:31;10.60;99.90
3053;DHT22;1536;51.098;6.414;2023-04-21T02:03:58;10.60;99.90
3053;DHT22;1536;51.098;6.414;2023-04-21T02:06:24;10.60;99.90
3053;DHT22;1536;51.098;6.414;2023-04-21T02:08:51;10.60;99.90
3053;DHT22;1536;51.098;6.414;2023-04-21T02:11:18;10.60;99.90
3053;DHT22;1536;51.098;6.414;2023-04-21T02:13:46;10.60;99.90
3053;DHT22;1536;51.098;6.414;2023-04-21T02:16:12;10.60;99.90
3053;DHT22;1536;51.098;6.414;2023-04-21T02:18:39;10.60;99.90
3053;DHT22;1536;51.098;6.414;2023-04-21T02:21:06;10.70;99.90
3053;DHT22;1536;51.098;6.414;2023-04-21T02:23:33;10.60;99.90
3053;DHT22;1536;51.098;6.414;2023-04-21T02:26:00;10.60;99.90
3053;DHT22;1536;51.098;6.414;2023-04-21T02:28:26;10.70;99.90
3053;DHT22;1536;51.098;6.414;2023-04-21T02:30:56;10.70;99.90
3053;DHT22;1536;51.098;6.414;2023-04-21T02:33:23;10.70;99.90
3053;DHT22;1536;51.098;6.414;2023-04-21T02:35:49;10.70;99.90
3053;DHT22;1536;51.098;6.414;2023-04-21T02:38:16;10.70;99.90
3053;DHT22;1536;51.098;6.414;2023-04-21T02:40:43;10.70;99.90
3053;DHT22;1536;51.098;6.414;2023-04-21T02:43:09;10.70;99.90
3053;DHT22;1536;51.098;6.414;2023-04-21T02:45:37;10.70;99.90
3053;DHT22;1536;51.098;6.414;2023-04-21T02:48:05;10.70;99.90
3053;DHT22;1536;51.098;6.414;2023-04-21T02:50:32;10.70;99.90
3053;DHT22;1536;51.098;6.414;2023-04-21T02:52:59;10.70;99.90
3053;DHT22;1536;51.098;6.414;2023-04-21T02:55:25;10.70;99.90
3053;DHT22;1536;51.098;6.414;2023-04-21T02:57:52;10.70;99.90
3053;DHT22;1536;51.098;6.414;2023-04-21T03:00:19;10.70;99.90
3053;DHT22;1536;51.098;6.414;2023-04-21T03:02:46;10.70;99.90
3053;DHT22;1536;51.098;6.414;2023-04-21T03:05:14;10.60;99.90
3053;DHT22;1536;51.098;6.414;2023-04-21T03:07:43;10.60;99.90
3053;DHT22;1536;51.098;6.414;2023-04-21T03:10:11;10.60;99.90
3053;DHT22;1536;51.098;6.414;2023-04-21T03:12:37;10.50;99.90
3053;DHT22;1536;51.098;6.414;2023-04-21T03:15:05;10.50;99.90
3053;DHT22;1536;51.098;6.414;2023-04-21T03:17:32;10.50;99.90
3053;DHT22;1536;51.098;6.414;2023-04-21T03:19:58;10.50;99.90
3053;DHT22;1536;51.098;6.414;2023-04-21T03:22:26;10.40;99.90
3053;DHT22;1536;51.098;6.414;2023-04-21T03:24:53;10.40;99.90
3053;DHT22;1536;51.098;6.414;2023-04-21T03:27:20;10.40;99.90
3053;DHT22;1536;51.098;6.414;2023-04-21T03:29:47;10.40;99.90
3053;DHT22;1536;51.098;6.414;2023-04-21T03:32:13;10.30;99.90
3053;DHT22;1536;51.098;6.414;2023-04-21T03:34:40;10.30;99.90
3053;DHT22;1536;51.098;6.414;2023-04-21T03:37:07;10.30;99.90
3053;DHT22;1536;51.098;6.414;2023-04-21T03:39:35;10.30;99.90
3053;DHT22;1536;51.098;6.414;2023-04-21T03:42:02;10.30;99.90
3053;DHT22;1536;51.098;6.414;2023-04-21T03:44:29;10.30;99.90
3053;DHT22;1536;51.098;6.414;2023-04-21T03:46:56;10.20;99.90
3053;DHT22;1536;51.098;6.414;2023-04-21T03:49:23;10.20;99.90
3053;DHT22;1536;51.098;6.414;2023-04-21T03:51:49;10.20;99.90
3053;DHT22;1536;51.098;6.414;2023-04-21T03:54:16;10.20;99.90
3053;DHT22;1536;51.098;6.414;2023-04-21T03:56:44;10.20;99.90
3053;DHT22;1536;51.098;6.414;2023-04-21T03:59:11;10.20;99.90
3053;DHT22;1536;51.098;6.414;2023-04-21T04:01:38;10.20;99.90
3053;DHT22;1536;51.098;6.414;2023-04-21T04:04:06;10.20;99.90
3053;DHT22;1536;51.098;6.414;2023-04-21T04:06:33;10.20;99.90
3053;DHT22;1536;51.098;6.414;2023-04-21T04:09:01;10.20;99.90
3053;DHT22;1536;51.098;6.414;2023-04-21T04:11:29;10.10;99.90
3053;DHT22;1536;51.098;6.414;2023-04-21T04:13:57;10.20;99.90
3053;DHT22;1536;51.098;6.414;2023-04-21T04:16:23;10.10;99.90
3053;DHT22;1536;51.098;6.414;2023-04-21T04:18:50;10.10;99.90
3053;DHT22;1536;51.098;6.414;2023-04-21T04:21:17;10.10;99.90
3053;DHT22;1536;51.098;6.414;2023-04-21T04:23:44;10.10;99.90
3053;DHT22;1536;51.098;6.414;2023-04-21T04:26:11;10.10;99.90
3053;DHT22;1536;51.098;6.414;2023-04-21T04:28:37;10.10;99.90
3053;DHT22;1536;51.098;6.414;2023-04-21T04:31:06;10.00;99.90
3053;DHT22;1536;51.098;6.414;2023-04-21T04:33:32;10.00;99.90
3053;DHT22;1536;51.098;6.414;2023-04-21T04:35:59;10.00;99.90
3053;DHT22;1536;51.098;6.414;2023-04-21T04:38:26;10.00;99.90
3053;DHT22;1536;51.098;6.414;2023-04-21T04:40:55;10.00;99.90
3053;DHT22;1536;51.098;6.414;2023-04-21T04:43:23;9.90;99.90
3053;DHT22;1536;51.098;6.414;2023-04-21T04:45:50;9.90;99.90
3053;DHT22;1536;51.098;6.414;2023-04-21T04:48:19;9.90;99.90
3053;DHT22;1536;51.098;6.414;2023-04-21T04:50:45;9.90;99.90
3053;DHT22;1536;51.098;6.414;2023-04-21T04:53:12;9.90;99.90
3053;DHT22;1536;51.098;6.414;2023-04-21T04:55:39;9.90;99.90
3053;DHT22;1536;51.098;6.414;2023-04-21T04:58:05;9.90;99.90
3053;DHT22;1536;51.098;6.414;2023-04-21T05:00:32;9.90;99.90
3053;DHT22;1536;51.098;6.414;2023-04-21T05:02:59;10.00;99.90
3053;DHT22;1536;51.098;6.414;2023-04-21T05:05:27;10.00;99.90
3053;DHT22;1536;51.098;6.414;2023-04-21T05:07:54;10.00;99.90
3053;DHT22;1536;51.098;6.414;2023-04-21T05:10:21;10.00;99.90
3053;DHT22;1536;51.098;6.414;2023-04-21T05:12:47;10.10;99.90
3053;DHT22;1536;51.098;6.414;2023-04-21T05:15:15;10.00;99.90
3053;DHT22;1536;51.098;6.414;2023-04-21T05:17:42;10.10;99.90
3053;DHT22;1536;51.098;6.414;2023-04-21T05:20:09;10.10;99.90
3053;DHT22;1536;51.098;6.414;2023-04-21T05:22:38;10.10;99.90
3053;DHT22;1536;51.098;6.414;2023-04-21T05:25:06;10.10;99.90
3053;DHT22;1536;51.098;6.414;2023-04-21T05:27:33;10.10;99.90
3053;DHT22;1536;51.098;6.414;2023-04-21T05:29:59;10.10;99.90
3053;DHT22;1536;51.098;6.414;2023-04-21T05:32:26;10.20;99.90
3053;DHT22;1536;51.098;6.414;2023-04-21T05:34:53;10.20;99.90
3053;DHT22;1536;51.098;6.414;2023-04-21T05:37:20;10.20;99.90
3053;DHT22;1536;51.098;6.414;2023-04-21T05:39:48;10.20;99.90
3053;DHT22;1536;51.098;6.414;2023-04-21T05:42:15;10.20;99.90
3053;DHT22;1536;51.098;6.414;2023-04-21T05:44:43;10.20;99.90
3053;DHT22;1536;51.098;6.414;2023-04-21T05:47:09;10.20;99.90
3053;DHT22;1536;51.098;6.414;2023-04-21T05:49:36;10.20;99.90
3053;DHT22;1536;51.098;6.414;2023-04-21T05:52:03;10.20;99.90
3053;DHT22;1536;51.098;6.414;2023-04-21T05:54:30;10.20;99.90
3053;DHT22;1536;51.098;6.414;2023-04-21T05:56:58;10.20;99.90
3053;DHT22;1536;51.098;6.414;2023-04-21T05:59:25;10.20;99.90
3053;DHT22;1536;51.098;6.414;2023-04-21T06:01:52;10.20;99.90
3053;DHT22;1536;51.098;6.414;2023-04-21T06:04:19;10.30;99.90
3053;DHT22;1536;51.098;6.414;2023-04-21T06:06:45;10.30;99.90
3053;DHT22;1536;51.098;6.414;2023-04-21T06:09:12;10.40;99.90
3053;DHT22;1536;51.098;6.414;2023-04-21T06:11:40;10.40;99.90
3053;DHT22;1536;51.098;6.414;2023-04-21T06:14:08;10.40;99.90
3053;DHT22;1536;51.098;6.414;2023-04-21T06:16:35;10.50;99.90
3053;DHT22;1536;51.098;6.414;2023-04-21T06:19:02;10.50;99.90
3053;DHT22;1536;51.098;6.414;2023-04-21T06:21:29;10.50;99.90
3053;DHT22;1536;51.098;6.414;2023-04-21T06:23:57;10.50;99.90
3053;DHT22;1536;51.098;6.414;2023-04-21T06:26:24;10.60;99.90
3053;DHT22;1536;51.098;6.414;2023-04-21T06:28:51;10.70;99.90
3053;DHT22;1536;51.098;6.414;2023-04-21T06:31:19;10.70;99.90
3053;DHT22;1536;51.098;6.414;2023-04-21T06:33:45;10.70;99.90
3053;DHT22;1536;51.098;6.414;2023-04-21T06:36:12;10.80;99.90
3053;DHT22;1536;51.098;6.414;2023-04-21T06:38:39;10.90;99.90
3053;DHT22;1536;51.098;6.414;2023-04-21T06:41:07;10.90;99.90
3053;DHT22;1536;51.098;6.414;2023-04-21T06:43:34;10.90;99.90
3053;DHT22;1536;51.098;6.414;2023-04-21T06:46:02;11.00;99.90
3053;DHT22;1536;51.098;6.414;2023-04-21T06:48:30;11.00;99.90
3053;DHT22;1536;51.098;6.414;2023-04-21T06:50:57;11.10;99.90
3053;DHT22;1536;51.098;6.414;2023-04-21T06:53:25;11.10;99.90
3053;DHT22;1536;51.098;6.414;2023-04-21T06:55:51;11.20;99.90
3053;DHT22;1536;51.098;6.414;2023-04-21T06:58:18;11.30;99.90
3053;DHT22;1536;51.098;6.414;2023-04-21T07:00:45;11.30;99.90
3053;DHT22;1536;51.098;6.414;2023-04-21T07:03:12;11.40;99.90
3053;DHT22;1536;51.098;6.414;2023-04-21T07:05:40;11.50;99.90
3053;DHT22;1536;51.098;6.414;2023-04-21T07:08:07;11.50;99.90
3053;DHT22;1536;51.098;6.414;2023-04-21T07:10:33;11.60;99.90
3053;DHT22;1536;51.098;6.414;2023-04-21T07:13:00;11.60;99.90
3053;DHT22;1536;51.098;6.414;2023-04-21T07:15:27;11.70;99.90
3053;DHT22;1536;51.098;6.414;2023-04-21T07:17:54;11.70;99.90
3053;DHT22;1536;51.098;6.414;2023-04-21T07:20:20;11.70;99.90
3053;DHT22;1536;51.098;6.414;2023-04-21T07:22:49;11.80;99.90
3053;DHT22;1536;51.098;6.414;2023-04-21T07:25:15;11.80;99.90
3053;DHT22;1536;51.098;6.414;2023-04-21T07:27:42;11.80;99.90
3053;DHT22;1536;51.098;6.414;2023-04-21T07:30:09;11.90;99.90
3053;DHT22;1536;51.098;6.414;2023-04-21T07:32:36;11.90;99.90
3053;DHT22;1536;51.098;6.414;2023-04-21T07:35:04;11.90;99.90
3053;DHT22;1536;51.098;6.414;2023-04-21T07:37:30;11.90;99.90
3053;DHT22;1536;51.098;6.414;2023-04-21T07:39:59;12.00;99.90
3053;DHT22;1536;51.098;6.414;2023-04-21T07:42:25;12.00;99.90
3053;DHT22;1536;51.098;6.414;2023-04-21T07:44:52;12.00;99.90
3053;DHT22;1536;51.098;6.414;2023-04-21T07:47:20;12.00;99.90
3053;DHT22;1536;51.098;6.414;2023-04-21T07:49:47;12.10;99.90
3053;DHT22;1536;51.098;6.414;2023-04-21T07:52:14;12.20;99.90
3053;DHT22;1536;51.098;6.414;2023-04-21T07:54:40;12.20;99.90
3053;DHT22;1536;51.098;6.414;2023-04-21T07:57:09;12.20;99.90
3053;DHT22;1536;51.098;6.414;2023-04-21T07:59:36;12.30;99.90
3053;DHT22;1536;51.098;6.414;2023-04-21T08:02:03;12.40;99.90
3053;DHT22;1536;51.098;6.414;2023-04-21T08:04:30;12.40;99.90
3053;DHT22;1536;51.098;6.414;2023-04-21T08:06:57;12.40;99.90
3053;DHT22;1536;51.098;6.414;2023-04-21T08:09:23;12.50;99.90
3053;DHT22;1536;51.098;6.414;2023-04-21T08:11:50;12.60;99.90
3053;DHT22;1536;51.098;6.414;2023-04-21T08:14:18;12.60;99.90
3053;DHT22;1536;51.098;6.414;2023-04-21T08:16:45;12.70;99.90
3053;DHT22;1536;51.098;6.414;2023-04-21T08:19:12;12.70;99.90
3053;DHT22;1536;51.098;6.414;2023-04-21T08:21:39;12.80;99.90
3053;DHT22;1536;51.098;6.414;2023-04-21T08:24:06;12.90;99.90
3053;DHT22;1536;51.098;6.414;2023-04-21T08:26:33;12.90;99.90
3053;DHT22;1536;51.098;6.414;2023-04-21T08:29:00;13.00;99.90
3053;DHT22;1536;51.098;6.414;2023-04-21T08:31:28;13.10;99.90
3053;DHT22;1536;51.098;6.414;2023-04-21T08:33:55;13.10;99.90
3053;DHT22;1536;51.098;6.414;2023-04-21T08:36:22;13.20;99.90
3053;DHT22;1536;51.098;6.414;2023-04-21T08:38:48;13.30;99.90
3053;DHT22;1536;51.098;6.414;2023-04-21T08:41:15;13.40;99.90
3053;DHT22;1536;51.098;6.414;2023-04-21T08:43:42;13.50;99.90
3053;DHT22;1536;51.098;6.414;2023-04-21T08:46:09;13.70;99.90
3053;DHT22;1536;51.098;6.414;2023-04-21T08:48:37;13.70;99.90
3053;DHT22;1536;51.098;6.414;2023-04-21T08:51:06;13.70;99.90
3053;DHT22;1536;51.098;6.414;2023-04-21T08:53:34;13.80;99.90
3053;DHT22;1536;51.098;6.414;2023-04-21T08:56:02;13.80;99.90
3053;DHT22;1536;51.098;6.414;2023-04-21T08:58:29;13.90;99.90
3053;DHT22;1536;51.098;6.414;2023-04-21T09:00:56;13.90;99.90
3053;DHT22;1536;51.098;6.414;2023-04-21T09:03:25;14.00;99.90
3053;DHT22;1536;51.098;6.414;2023-04-21T09:06:01;14.10;99.90
3053;DHT22;1536;51.098;6.414;2023-04-21T09:08:30;14.20;99.90
3053;DHT22;1536;51.098;6.414;2023-04-21T09:10:57;14.30;99.90
3053;DHT22;1536;51.098;6.414;2023-04-21T09:13:30;14.40;99.90
3053;DHT22;1536;51.098;6.414;2023-04-21T09:15:57;14.40;99.90
3053;DHT22;1536;51.098;6.414;2023-04-21T09:18:26;14.40;99.90
3053;DHT22;1536;51.098;6.414;2023-04-21T09:21:04;14.40;99.90
3053;DHT22;1536;51.098;6.414;2023-04-21T09:23:38;14.50;99.90
3053;DHT22;1536;51.098;6.414;2023-04-21T09:26:06;14.60;99.90
3053;DHT22;1536;51.098;6.414;2023-04-21T09:28:33;14.60;99.90
3053;DHT22;1536;51.098;6.414;2023-04-21T09:30:59;14.80;99.90
3053;DHT22;1536;51.098;6.414;2023-04-21T09:33:27;14.80;99.90
3053;DHT22;1536;51.098;6.414;2023-04-21T09:35:53;14.90;99.90
3053;DHT22;1536;51.098;6.414;2023-04-21T09:38:22;15.00;99.90
3053;DHT22;1536;51.098;6.414;2023-04-21T09:40:56;15.00;99.90
3053;DHT22;1536;51.098;6.414;2023-04-21T09:43:22;15.10;99.90
3053;DHT22;1536;51.098;6.414;2023-04-21T09:45:50;15.20;99.90
3053;DHT22;1536;51.098;6.414;2023-04-21T09:48:17;15.20;99.90
3053;DHT22;1536;51.098;6.414;2023-04-21T09:50:45;15.20;99.90
3053;DHT22;1536;51.098;6.414;2023-04-21T09:53:15;15.30;99.90
3053;DHT22;1536;51.098;6.414;2023-04-21T09:55:47;15.30;99.90
3053;DHT22;1536;51.098;6.414;2023-04-21T09:58:15;15.30;99.90
3053;DHT22;1536;51.098;6.414;2023-04-21T10:00:46;15.30;99.90
3053;DHT22;1536;51.098;6.414;2023-04-21T10:03:13;15.40;99.90
3053;DHT22;1536;51.098;6.414;2023-04-21T10:05:42;15.40;99.90
3053;DHT22;1536;51.098;6.414;2023-04-21T10:08:09;15.40;99.90
3053;DHT22;1536;51.098;6.414;2023-04-21T10:10:37;15.50;99.90
3053;DHT22;1536;51.098;6.414;2023-04-21T10:13:06;15.50;99.90
3053;DHT22;1536;51.098;6.414;2023-04-21T10:15:34;15.50;99.90
3053;DHT22;1536;51.098;6.414;2023-04-21T10:18:11;15.60;99.90
3053;DHT22;1536;51.098;6.414;2023-04-21T10:20:53;15.60;99.90
3053;DHT22;1536;51.098;6.414;2023-04-21T10:23:32;15.70;99.90
3053;DHT22;1536;51.098;6.414;2023-04-21T10:26:03;15.70;99.90
3053;DHT22;1536;51.098;6.414;2023-04-21T10:28:52;15.80;99.90
3053;DHT22;1536;51.098;6.414;2023-04-21T10:31:22;15.90;99.90
3053;DHT22;1536;51.098;6.414;2023-04-21T10:37:09;16.00;99.90
3053;DHT22;1536;51.098;6.414;2023-04-21T10:39:52;16.00;99.90
3053;DHT22;1536;51.098;6.414;2023-04-21T10:42:21;15.90;99.90
3053;DHT22;1536;51.098;6.414;2023-04-21T10:45:00;15.90;99.90
3053;DHT22;1536;51.098;6.414;2023-04-21T10:47:29;15.80;99.90
3053;DHT22;1536;51.098;6.414;2023-04-21T10:50:00;15.80;99.90
3053;DHT22;1536;51.098;6.414;2023-04-21T10:52:36;15.80;99.90
3053;DHT22;1536;51.098;6.414;2023-04-21T10:55:07;15.80;99.90
3053;DHT22;1536;51.098;6.414;2023-04-21T10:57:37;15.80;99.90
3053;DHT22;1536;51.098;6.414;2023-04-21T11:00:08;15.80;99.90
3053;DHT22;1536;51.098;6.414;2023-04-21T11:02:36;15.80;99.90
3053;DHT22;1536;51.098;6.414;2023-04-21T11:05:04;15.80;99.90
3053;DHT22;1536;51.098;6.414;2023-04-21T11:07:31;15.90;99.90
3053;DHT22;1536;51.098;6.414;2023-04-21T11:10:04;16.00;99.90
3053;DHT22;1536;51.098;6.414;2023-04-21T11:12:33;16.00;99.90
3053;DHT22;1536;51.098;6.414;2023-04-21T11:15:03;16.00;99.90
3053;DHT22;1536;51.098;6.414;2023-04-21T11:17:33;16.10;99.90
3053;DHT22;1536;51.098;6.414;2023-04-21T11:20:01;16.10;99.90
3053;DHT22;1536;51.098;6.414;2023-04-21T11:22:30;16.10;99.90
3053;DHT22;1536;51.098;6.414;2023-04-21T11:24:57;16.20;99.90
3053;DHT22;1536;51.098;6.414;2023-04-21T11:27:26;16.20;99.90
3053;DHT22;1536;51.098;6.414;2023-04-21T11:29:53;16.30;99.90
3053;DHT22;1536;51.098;6.414;2023-04-21T11:32:20;16.20;99.90
3053;DHT22;1536;51.098;6.414;2023-04-21T11:34:49;16.30;99.90
3053;DHT22;1536;51.098;6.414;2023-04-21T11:37:22;16.30;99.90
3053;DHT22;1536;51.098;6.414;2023-04-21T11:39:49;16.30;99.90
3053;DHT22;1536;51.098;6.414;2023-04-21T11:42:21;16.40;99.90
3053;DHT22;1536;51.098;6.414;2023-04-21T11:44:48;16.50;99.90
3053;DHT22;1536;51.098;6.414;2023-04-21T11:47:16;16.60;99.90
3053;DHT22;1536;51.098;6.414;2023-04-21T11:49:44;16.60;99.90
3053;DHT22;1536;51.098;6.414;2023-04-21T11:52:19;16.60;99.90
3053;DHT22;1536;51.098;6.414;2023-04-21T11:54:46;16.70;99.90
3053;DHT22;1536;51.098;6.414;2023-04-21T11:57:17;16.80;99.90
3053;DHT22;1536;51.098;6.414;2023-04-21T11:59:44;16.80;99.90
3053;DHT22;1536;51.098;6.414;2023-04-21T12:02:12;16.80;99.90
3053;DHT22;1536;51.098;6.414;2023-04-21T12:04:56;16.80;99.90
3053;DHT22;1536;51.098;6.414;2023-04-21T12:07:24;16.70;99.90
3053;DHT22;1536;51.098;6.414;2023-04-21T12:09:51;16.70;99.90
3053;DHT22;1536;51.098;6.414;2023-04-21T12:12:18;16.80;99.90
3053;DHT22;1536;51.098;6.414;2023-04-21T12:14:45;16.80;99.90
3053;DHT22;1536;51.098;6.414;2023-04-21T12:17:11;16.80;99.90
3053;DHT22;1536;51.098;6.414;2023-04-21T12:19:40;16.90;99.90
3053;DHT22;1536;51.098;6.414;2023-04-21T12:22:07;17.00;99.90
3053;DHT22;1536;51.098;6.414;2023-04-21T12:24:36;17.00;99.90
3053;DHT22;1536;51.098;6.414;2023-04-21T12:27:04;17.00;99.90
3053;DHT22;1536;51.098;6.414;2023-04-21T12:29:31;17.00;99.90
3053;DHT22;1536;51.098;6.414;2023-04-21T12:32:00;17.10;99.90
3053;DHT22;1536;51.098;6.414;2023-04-21T12:34:27;17.20;99.90
3053;DHT22;1536;51.098;6.414;2023-04-21T12:36:54;17.30;99.90
3053;DHT22;1536;51.098;6.414;2023-04-21T12:39:21;17.30;99.90
3053;DHT22;1536;51.098;6.414;2023-04-21T12:41:49;17.30;99.90
3053;DHT22;1536;51.098;6.414;2023-04-21T12:44:15;17.30;99.90
3053;DHT22;1536;51.098;6.414;2023-04-21T12:46:42;17.30;99.90
3053;DHT22;1536;51.098;6.414;2023-04-21T12:49:09;17.30;99.90
3053;DHT22;1536;51.098;6.414;2023-04-21T12:51:36;17.20;99.90
3053;DHT22;1536;51.098;6.414;2023-04-21T12:54:03;17.30;99.90
3053;DHT22;1536;51.098;6.414;2023-04-21T12:56:30;17.30;99.90
3053;DHT22;1536;51.098;6.414;2023-04-21T12:58:58;17.30;99.90
3053;DHT22;1536;51.098;6.414;2023-04-21T13:01:25;17.40;99.90
3053;DHT22;1536;51.098;6.414;2023-04-21T13:03:52;17.40;99.90
3053;DHT22;1536;51.098;6.414;2023-04-21T13:06:19;17.40;99.90
3053;DHT22;1536;51.098;6.414;2023-04-21T13:08:45;17.30;99.90
3053;DHT22;1536;51.098;6.414;2023-04-21T13:11:12;17.30;99.90
3053;DHT22;1536;51.098;6.414;2023-04-21T13:13:39;17.30;99.90
3053;DHT22;1536;51.098;6.414;2023-04-21T13:16:07;17.40;99.90
3053;DHT22;1536;51.098;6.414;2023-04-21T13:18:34;17.40;99.90
3053;DHT22;1536;51.098;6.414;2023-04-21T13:21:02;17.50;99.90
3053;DHT22;1536;51.098;6.414;2023-04-21T13:23:28;17.60;99.90
3053;DHT22;1536;51.098;6.414;2023-04-21T13:25:55;17.70;99.90
3053;DHT22;1536;51.098;6.414;2023-04-21T13:28:22;17.80;99.90
3053;DHT22;1536;51.098;6.414;2023-04-21T13:30:50;17.90;99.90
3053;DHT22;1536;51.098;6.414;2023-04-21T13:33:19;18.10;99.90
3053;DHT22;1536;51.098;6.414;2023-04-21T13:35:45;18.20;99.90
3053;DHT22;1536;51.098;6.414;2023-04-21T13:38:12;18.30;99.90
3053;DHT22;1536;51.098;6.414;2023-04-21T13:40:39;18.40;99.90
3053;DHT22;1536;51.098;6.414;2023-04-21T13:43:06;18.30;99.90
3053;DHT22;1536;51.098;6.414;2023-04-21T13:45:33;18.40;99.90
3053;DHT22;1536;51.098;6.414;2023-04-21T13:47:59;18.50;99.90
3053;DHT22;1536;51.098;6.414;2023-04-21T13:50:27;18.50;99.90
3053;DHT22;1536;51.098;6.414;2023-04-21T13:52:54;18.50;99.90
3053;DHT22;1536;51.098;6.414;2023-04-21T13:55:21;18.50;99.90
3053;DHT22;1536;51.098;6.414;2023-04-21T13:57:48;18.50;99.90
3053;DHT22;1536;51.098;6.414;2023-04-21T14:00:15;18.50;99.90
3053;DHT22;1536;51.098;6.414;2023-04-21T14:02:42;18.50;99.90
3053;DHT22;1536;51.098;6.414;2023-04-21T14:05:09;18.60;99.90
3053;DHT22;1536;51.098;6.414;2023-04-21T14:07:37;18.60;99.90
3053;DHT22;1536;51.098;6.414;2023-04-21T14:10:05;18.60;99.90
3053;DHT22;1536;51.098;6.414;2023-04-21T14:12:31;18.60;99.90
3053;DHT22;1536;51.098;6.414;2023-04-21T14:14:58;18.60;99.90
3053;DHT22;1536;51.098;6.414;2023-04-21T14:17:25;18.60;99.90
3053;DHT22;1536;51.098;6.414;2023-04-21T14:19:52;18.60;99.90
3053;DHT22;1536;51.098;6.414;2023-04-21T14:22:19;18.60;99.90
3053;DHT22;1536;51.098;6.414;2023-04-21T14:24:47;18.70;99.90
3053;DHT22;1536;51.098;6.414;2023-04-21T14:27:15;18.80;99.90
3053;DHT22;1536;51.098;6.414;2023-04-21T14:29:41;18.90;99.90
3053;DHT22;1536;51.098;6.414;2023-04-21T14:32:08;19.00;99.90
3053;DHT22;1536;51.098;6.414;2023-04-21T14:34:35;18.90;99.90
3053;DHT22;1536;51.098;6.414;2023-04-21T14:37:02;18.70;99.90
3053;DHT22;1536;51.098;6.414;2023-04-21T14:39:28;18.60;99.90
3053;DHT22;1536;51.098;6.414;2023-04-21T14:41:57;18.50;99.90
3053;DHT22;1536;51.098;6.414;2023-04-21T14:44:26;18.40;99.90
3053;DHT22;1536;51.098;6.414;2023-04-21T14:46:52;18.40;99.90
3053;DHT22;1536;51.098;6.414;2023-04-21T14:49:19;18.40;99.90
3053;DHT22;1536;51.098;6.414;2023-04-21T14:51:46;18.50;99.90
3053;DHT22;1536;51.098;6.414;2023-04-21T14:54:14;18.60;99.90
3053;DHT22;1536;51.098;6.414;2023-04-21T14:56:41;18.70;99.90
3053;DHT22;1536;51.098;6.414;2023-04-21T14:59:09;18.90;99.90
3053;DHT22;1536;51.098;6.414;2023-04-21T15:01:36;19.00;99.90
3053;DHT22;1536;51.098;6.414;2023-04-21T15:04:02;19.00;99.90
3053;DHT22;1536;51.098;6.414;2023-04-21T15:06:29;19.00;99.90
3053;DHT22;1536;51.098;6.414;2023-04-21T15:08:56;18.90;99.90
3053;DHT22;1536;51.098;6.414;2023-04-21T15:11:22;18.70;99.90
3053;DHT22;1536;51.098;6.414;2023-04-21T15:13:49;18.70;99.90
3053;DHT22;1536;51.098;6.414;2023-04-21T15:16:18;18.70;99.90
3053;DHT22;1536;51.098;6.414;2023-04-21T15:18:44;18.80;99.90
3053;DHT22;1536;51.098;6.414;2023-04-21T15:21:11;18.80;99.90
3053;DHT22;1536;51.098;6.414;2023-04-21T15:23:38;18.70;99.90
3053;DHT22;1536;51.098;6.414;2023-04-21T15:26:05;18.60;99.90
3053;DHT22;1536;51.098;6.414;2023-04-21T15:28:31;18.50;99.90
3053;DHT22;1536;51.098;6.414;2023-04-21T15:30:59;18.40;99.90
3053;DHT22;1536;51.098;6.414;2023-04-21T15:33:28;18.40;99.90
3053;DHT22;1536;51.098;6.414;2023-04-21T15:35:54;18.30;99.90
3053;DHT22;1536;51.098;6.414;2023-04-21T15:38:21;18.30;99.90
3053;DHT22;1536;51.098;6.414;2023-04-21T15:40:48;18.30;99.90
3053;DHT22;1536;51.098;6.414;2023-04-21T15:43:15;18.20;99.90
3053;DHT22;1536;51.098;6.414;2023-04-21T15:45:41;18.20;99.90
3053;DHT22;1536;51.098;6.414;2023-04-21T15:48:08;18.20;99.90
3053;DHT22;1536;51.098;6.414;2023-04-21T15:50:38;18.10;99.90
3053;DHT22;1536;51.098;6.414;2023-04-21T15:53:06;18.10;99.90
3053;DHT22;1536;51.098;6.414;2023-04-21T15:55:33;18.00;99.90
3053;DHT22;1536;51.098;6.414;2023-04-21T15:58:00;18.00;99.90
3053;DHT22;1536;51.098;6.414;2023-04-21T16:00:27;17.90;99.90
3053;DHT22;1536;51.098;6.414;2023-04-21T16:02:54;17.90;99.90
3053;DHT22;1536;51.098;6.414;2023-04-21T16:05:21;17.80;99.90
3053;DHT22;1536;51.098;6.414;2023-04-21T16:07:49;17.80;99.90